sensor_id;sensor_type;location;lat;lon;timestamp;temperature;humidity
13488;DHT22;6816;48.506;9.050;2023-03-31T00:02:20;11.50;99.90
13488;DHT22;6816;48.506;9.050;2023-03-31T00:05:22;11.40;99.90
13488;DHT22;6816;48.506;9.050;2023-03-31T00:08:28;11.40;99.90
13488;DHT22;6816;48.506;9.050;2023-03-31T00:11:29;11.40;99.90
13488;DHT22;6816;48.506;9.050;2023-03-31T00:14:30;11.30;99.90
13488;DHT22;6816;48.506;9.050;2023-03-31T00:17:30;11.30;99.90
13488;DHT22;6816;48.506;9.050;2023-03-31T00:20:32;11.30;99.90
13488;DHT22;6816;48.506;9.050;2023-03-31T00:23:33;11.20;99.90
13488;DHT22;6816;48.506;9.050;2023-03-31T00:26:34;11.20;99.90
13488;DHT22;6816;48.506;9.050;2023-03-31T00:29:35;11.20;99.90
13488;DHT22;6816;48.506;9.050;2023-03-31T00:32:36;11.20;99.90
13488;DHT22;6816;48.506;9.050;2023-03-31T00:35:37;11.20;99.90
13488;DHT22;6816;48.506;9.050;2023-03-31T00:38:38;11.20;99.90
13488;DHT22;6816;48.506;9.050;2023-03-31T00:41:39;11.30;99.90
13488;DHT22;6816;48.506;9.050;2023-03-31T00:48:17;11.20;99.90
13488;DHT22;6816;48.506;9.050;2023-03-31T00:51:19;11.20;99.90
13488;DHT22;6816;48.506;9.050;2023-03-31T00:54:22;11.20;99.90
13488;DHT22;6816;48.506;9.050;2023-03-31T00:57:26;11.20;99.90
13488;DHT22;6816;48.506;9.050;2023-03-31T01:00:27;11.20;99.90
13488;DHT22;6816;48.506;9.050;2023-03-31T01:03:30;11.30;99.90
13488;DHT22;6816;48.506;9.050;2023-03-31T01:06:32;11.50;99.90
13488;DHT22;6816;48.506;9.050;2023-03-31T01:09:34;11.30;99.90
13488;DHT22;6816;48.506;9.050;2023-03-31T01:12:37;11.40;99.90
13488;DHT22;6816;48.506;9.050;2023-03-31T01:15:39;11.40;99.90
13488;DHT22;6816;48.506;9.050;2023-03-31T01:18:41;11.40;99.90
13488;DHT22;6816;48.506;9.050;2023-03-31T01:21:59;11.40;99.90
13488;DHT22;6816;48.506;9.050;2023-03-31T01:41:56;11.40;99.90
13488;DHT22;6816;48.506;9.050;2023-03-31T01:51:59;11.40;99.90
13488;DHT22;6816;48.506;9.050;2023-03-31T01:55:10;11.30;99.90
13488;DHT22;6816;48.506;9.050;2023-03-31T01:58:37;11.40;99.90
13488;DHT22;6816;48.506;9.050;2023-03-31T02:01:50;11.40;99.90
13488;DHT22;6816;48.506;9.050;2023-03-31T02:04:56;11.40;99.90
13488;DHT22;6816;48.506;9.050;2023-03-31T02:08:12;11.40;99.90
13488;DHT22;6816;48.506;9.050;2023-03-31T02:11:14;11.40;99.90
13488;DHT22;6816;48.506;9.050;2023-03-31T02:14:21;11.40;99.90
13488;DHT22;6816;48.506;9.050;2023-03-31T02:17:25;11.40;99.90
13488;DHT22;6816;48.506;9.050;2023-03-31T02:20:29;11.60;99.90
13488;DHT22;6816;48.506;9.050;2023-03-31T02:23:32;11.50;99.90
13488;DHT22;6816;48.506;9.050;2023-03-31T02:26:37;11.60;99.90
13488;DHT22;6816;48.506;9.050;2023-03-31T02:29:39;11.70;99.90
13488;DHT22;6816;48.506;9.050;2023-03-31T02:32:42;11.70;99.90
13488;DHT22;6816;48.506;9.050;2023-03-31T02:35:44;11.70;99.90
13488;DHT22;6816;48.506;9.050;2023-03-31T02:39:04;11.80;99.90
13488;DHT22;6816;48.506;9.050;2023-03-31T02:42:06;11.90;99.90
13488;DHT22;6816;48.506;9.050;2023-03-31T02:45:46;11.80;99.90
13488;DHT22;6816;48.506;9.050;2023-03-31T02:48:52;11.90;99.90
13488;DHT22;6816;48.506;9.050;2023-03-31T03:09:06;11.80;99.90
13488;DHT22;6816;48.506;9.050;2023-03-31T03:15:32;11.70;99.90
13488;DHT22;6816;48.506;9.050;2023-03-31T03:18:35;11.60;99.90
13488;DHT22;6816;48.506;9.050;2023-03-31T03:21:36;11.60;99.90
13488;DHT22;6816;48.506;9.050;2023-03-31T03:24:36;11.50;99.90
13488;DHT22;6816;48.506;9.050;2023-03-31T03:27:39;11.50;99.90
13488;DHT22;6816;48.506;9.050;2023-03-31T03:30:40;11.40;99.90
13488;DHT22;6816;48.506;9.050;2023-03-31T03:33:41;11.40;99.90
13488;DHT22;6816;48.506;9.050;2023-03-31T03:36:42;11.40;99.90
13488;DHT22;6816;48.506;9.050;2023-03-31T03:39:42;11.40;99.90
13488;DHT22;6816;48.506;9.050;2023-03-31T03:42:43;11.40;99.90
13488;DHT22;6816;48.506;9.050;2023-03-31T03:45:47;11.30;99.90
13488;DHT22;6816;48.506;9.050;2023-03-31T03:48:48;11.30;99.90
13488;DHT22;6816;48.506;9.050;2023-03-31T03:51:48;11.20;99.90
13488;DHT22;6816;48.506;9.050;2023-03-31T03:54:50;11.20;99.90
13488;DHT22;6816;48.506;9.050;2023-03-31T03:57:50;11.10;99.90
13488;DHT22;6816;48.506;9.050;2023-03-31T04:00:51;11.20;99.90
13488;DHT22;6816;48.506;9.050;2023-03-31T04:03:51;11.10;99.90
13488;DHT22;6816;48.506;9.050;2023-03-31T04:06:52;11.00;99.90
13488;DHT22;6816;48.506;9.050;2023-03-31T04:09:53;10.90;99.90
13488;DHT22;6816;48.506;9.050;2023-03-31T04:12:53;10.90;99.90
13488;DHT22;6816;48.506;9.050;2023-03-31T04:15:54;10.80;99.90
13488;DHT22;6816;48.506;9.050;2023-03-31T04:18:54;10.90;99.90
13488;DHT22;6816;48.506;9.050;2023-03-31T04:21:58;10.80;99.90
13488;DHT22;6816;48.506;9.050;2023-03-31T04:25:03;10.80;99.90
13488;DHT22;6816;48.506;9.050;2023-03-31T04:28:04;10.80;99.90
13488;DHT22;6816;48.506;9.050;2023-03-31T04:31:06;10.80;99.90
13488;DHT22;6816;48.506;9.050;2023-03-31T04:34:08;10.90;99.90
13488;DHT22;6816;48.506;9.050;2023-03-31T04:37:12;10.80;99.90
13488;DHT22;6816;48.506;9.050;2023-03-31T04:40:13;10.80;99.90
13488;DHT22;6816;48.506;9.050;2023-03-31T04:43:14;10.90;99.90
13488;DHT22;6816;48.506;9.050;2023-03-31T04:46:15;10.90;99.90
13488;DHT22;6816;48.506;9.050;2023-03-31T04:49:16;10.90;99.90
13488;DHT22;6816;48.506;9.050;2023-03-31T04:52:17;10.90;99.90
13488;DHT22;6816;48.506;9.050;2023-03-31T04:55:17;10.90;99.90
13488;DHT22;6816;48.506;9.050;2023-03-31T04:58:18;11.00;99.90
13488;DHT22;6816;48.506;9.050;2023-03-31T05:01:19;11.00;99.90
13488;DHT22;6816;48.506;9.050;2023-03-31T05:04:19;11.10;99.90
13488;DHT22;6816;48.506;9.050;2023-03-31T05:07:20;11.10;99.90
13488;DHT22;6816;48.506;9.050;2023-03-31T05:10:21;11.10;99.90
13488;DHT22;6816;48.506;9.050;2023-03-31T05:13:21;11.10;99.90
13488;DHT22;6816;48.506;9.050;2023-03-31T05:16:22;11.10;99.90
13488;DHT22;6816;48.506;9.050;2023-03-31T05:19:22;11.10;99.90
13488;DHT22;6816;48.506;9.050;2023-03-31T05:22:23;11.20;99.90
13488;DHT22;6816;48.506;9.050;2023-03-31T05:25:26;11.20;99.90
13488;DHT22;6816;48.506;9.050;2023-03-31T05:28:31;11.10;99.90
13488;DHT22;6816;48.506;9.050;2023-03-31T05:31:32;11.10;99.90
13488;DHT22;6816;48.506;9.050;2023-03-31T05:34:33;11.20;99.90
13488;DHT22;6816;48.506;9.050;2023-03-31T05:37:33;11.10;99.90
13488;DHT22;6816;48.506;9.050;2023-03-31T05:40:34;11.10;99.90
13488;DHT22;6816;48.506;9.050;2023-03-31T05:43:36;11.10;99.90
13488;DHT22;6816;48.506;9.050;2023-03-31T05:46:37;11.10;99.90
13488;DHT22;6816;48.506;9.050;2023-03-31T05:49:38;11.10;99.90
13488;DHT22;6816;48.506;9.050;2023-03-31T05:52:39;11.10;99.90
13488;DHT22;6816;48.506;9.050;2023-03-31T05:55:40;11.10;99.90
13488;DHT22;6816;48.506;9.050;2023-03-31T05:58:40;11.10;99.90
13488;DHT22;6816;48.506;9.050;2023-03-31T06:01:41;11.00;99.90
13488;DHT22;6816;48.506;9.050;2023-03-31T06:04:42;11.10;99.90
13488;DHT22;6816;48.506;9.050;2023-03-31T06:07:43;11.10;99.90
13488;DHT22;6816;48.506;9.050;2023-03-31T06:10:43;11.10;99.90
13488;DHT22;6816;48.506;9.050;2023-03-31T06:13:44;11.10;99.90
13488;DHT22;6816;48.506;9.050;2023-03-31T06:16:45;11.10;99.90
13488;DHT22;6816;48.506;9.050;2023-03-31T06:19:47;11.10;99.90
13488;DHT22;6816;48.506;9.050;2023-03-31T06:22:48;11.10;99.90
13488;DHT22;6816;48.506;9.050;2023-03-31T06:25:49;11.10;99.90
13488;DHT22;6816;48.506;9.050;2023-03-31T06:28:49;11.10;99.90
13488;DHT22;6816;48.506;9.050;2023-03-31T06:31:50;11.10;99.90
13488;DHT22;6816;48.506;9.050;2023-03-31T06:34:51;11.20;99.90
13488;DHT22;6816;48.506;9.050;2023-03-31T06:37:51;11.20;99.90
13488;DHT22;6816;48.506;9.050;2023-03-31T06:40:52;11.20;99.90
13488;DHT22;6816;48.506;9.050;2023-03-31T06:43:53;11.20;99.90
13488;DHT22;6816;48.506;9.050;2023-03-31T06:46:54;11.20;99.90
13488;DHT22;6816;48.506;9.050;2023-03-31T06:49:54;11.30;99.90
13488;DHT22;6816;48.506;9.050;2023-03-31T06:52:55;11.30;99.90
13488;DHT22;6816;48.506;9.050;2023-03-31T06:55:56;11.30;99.90
13488;DHT22;6816;48.506;9.050;2023-03-31T06:58:57;11.20;99.90
13488;DHT22;6816;48.506;9.050;2023-03-31T07:01:57;11.20;99.90
13488;DHT22;6816;48.506;9.050;2023-03-31T07:04:58;11.20;99.90
13488;DHT22;6816;48.506;9.050;2023-03-31T07:07:59;11.40;99.90
13488;DHT22;6816;48.506;9.050;2023-03-31T07:11:00;11.20;99.90
13488;DHT22;6816;48.506;9.050;2023-03-31T07:14:01;11.30;99.90
13488;DHT22;6816;48.506;9.050;2023-03-31T07:17:02;11.30;99.90
13488;DHT22;6816;48.506;9.050;2023-03-31T07:20:04;11.30;99.90
13488;DHT22;6816;48.506;9.050;2023-03-31T07:23:09;11.40;99.90
13488;DHT22;6816;48.506;9.050;2023-03-31T07:26:10;11.40;99.90
13488;DHT22;6816;48.506;9.050;2023-03-31T07:29:11;11.50;99.90
13488;DHT22;6816;48.506;9.050;2023-03-31T07:32:11;11.60;99.90
13488;DHT22;6816;48.506;9.050;2023-03-31T07:35:22;11.80;99.90
13488;DHT22;6816;48.506;9.050;2023-03-31T07:38:22;11.70;99.90
13488;DHT22;6816;48.506;9.050;2023-03-31T07:41:23;11.90;99.90
13488;DHT22;6816;48.506;9.050;2023-03-31T07:44:25;11.90;99.90
13488;DHT22;6816;48.506;9.050;2023-03-31T07:47:27;12.00;99.90
13488;DHT22;6816;48.506;9.050;2023-03-31T07:50:27;12.10;99.90
13488;DHT22;6816;48.506;9.050;2023-03-31T07:53:28;12.20;99.90
13488;DHT22;6816;48.506;9.050;2023-03-31T07:56:29;12.30;99.90
13488;DHT22;6816;48.506;9.050;2023-03-31T07:59:30;12.50;99.90
13488;DHT22;6816;48.506;9.050;2023-03-31T08:02:30;12.60;99.90
13488;DHT22;6816;48.506;9.050;2023-03-31T08:05:31;12.70;99.90
13488;DHT22;6816;48.506;9.050;2023-03-31T08:08:31;12.70;99.90
13488;DHT22;6816;48.506;9.050;2023-03-31T08:11:33;12.70;99.90
13488;DHT22;6816;48.506;9.050;2023-03-31T08:14:33;12.80;99.90
13488;DHT22;6816;48.506;9.050;2023-03-31T08:17:34;12.80;99.90
13488;DHT22;6816;48.506;9.050;2023-03-31T08:20:35;12.70;99.90
13488;DHT22;6816;48.506;9.050;2023-03-31T08:23:36;12.80;99.90
13488;DHT22;6816;48.506;9.050;2023-03-31T08:26:36;12.80;99.90
13488;DHT22;6816;48.506;9.050;2023-03-31T08:29:37;12.90;99.90
13488;DHT22;6816;48.506;9.050;2023-03-31T08:32:38;13.00;99.90
13488;DHT22;6816;48.506;9.050;2023-03-31T08:35:38;13.10;99.90
13488;DHT22;6816;48.506;9.050;2023-03-31T08:38:41;13.10;99.90
13488;DHT22;6816;48.506;9.050;2023-03-31T08:45:49;13.20;99.90
13488;DHT22;6816;48.506;9.050;2023-03-31T08:51:51;13.50;99.90
13488;DHT22;6816;48.506;9.050;2023-03-31T08:54:57;13.50;99.90
13488;DHT22;6816;48.506;9.050;2023-03-31T09:08:33;14.00;99.90
13488;DHT22;6816;48.506;9.050;2023-03-31T09:11:40;14.20;99.90
13488;DHT22;6816;48.506;9.050;2023-03-31T09:14:53;14.40;99.90
13488;DHT22;6816;48.506;9.050;2023-03-31T09:18:05;14.70;99.90
13488;DHT22;6816;48.506;9.050;2023-03-31T09:21:22;15.00;99.90
13488;DHT22;6816;48.506;9.050;2023-03-31T09:24:31;15.30;99.90
13488;DHT22;6816;48.506;9.050;2023-03-31T09:27:34;15.60;99.90
13488;DHT22;6816;48.506;9.050;2023-03-31T09:30:37;15.90;99.90
13488;DHT22;6816;48.506;9.050;2023-03-31T09:33:44;16.20;99.90
13488;DHT22;6816;48.506;9.050;2023-03-31T09:36:45;16.40;99.90
13488;DHT22;6816;48.506;9.050;2023-03-31T09:39:46;16.70;99.90
13488;DHT22;6816;48.506;9.050;2023-03-31T09:45:55;17.00;99.90
13488;DHT22;6816;48.506;9.050;2023-03-31T09:49:08;17.20;99.90
13488;DHT22;6816;48.506;9.050;2023-03-31T09:52:30;17.40;99.90
13488;DHT22;6816;48.506;9.050;2023-03-31T09:55:44;17.70;99.90
13488;DHT22;6816;48.506;9.050;2023-03-31T09:58:46;17.90;99.90
13488;DHT22;6816;48.506;9.050;2023-03-31T10:01:50;18.10;99.90
13488;DHT22;6816;48.506;9.050;2023-03-31T10:04:51;18.30;99.90
13488;DHT22;6816;48.506;9.050;2023-03-31T10:08:11;18.40;99.90
13488;DHT22;6816;48.506;9.050;2023-03-31T10:11:12;18.50;99.90
13488;DHT22;6816;48.506;9.050;2023-03-31T10:14:14;18.60;99.90
13488;DHT22;6816;48.506;9.050;2023-03-31T10:17:22;18.60;99.90
13488;DHT22;6816;48.506;9.050;2023-03-31T10:20:43;18.60;99.90
13488;DHT22;6816;48.506;9.050;2023-03-31T10:23:48;18.60;99.90
13488;DHT22;6816;48.506;9.050;2023-03-31T10:26:53;18.60;99.90
13488;DHT22;6816;48.506;9.050;2023-03-31T10:29:56;18.50;99.90
13488;DHT22;6816;48.506;9.050;2023-03-31T10:32:57;18.50;99.90
13488;DHT22;6816;48.506;9.050;2023-03-31T10:36:06;18.50;99.90
13488;DHT22;6816;48.506;9.050;2023-03-31T10:39:08;18.40;99.90
13488;DHT22;6816;48.506;9.050;2023-03-31T10:42:08;18.30;99.90
13488;DHT22;6816;48.506;9.050;2023-03-31T10:48:32;18.30;99.90
13488;DHT22;6816;48.506;9.050;2023-03-31T10:51:33;18.40;99.90
13488;DHT22;6816;48.506;9.050;2023-03-31T10:54:34;18.60;99.90
13488;DHT22;6816;48.506;9.050;2023-03-31T10:57:54;18.90;99.90
13488;DHT22;6816;48.506;9.050;2023-03-31T11:01:03;19.10;98.50
13488;DHT22;6816;48.506;9.050;2023-03-31T11:13:41;19.90;97.70
13488;DHT22;6816;48.506;9.050;2023-03-31T11:17:03;19.80;97.20
13488;DHT22;6816;48.506;9.050;2023-03-31T11:30:18;17.20;84.80
13488;DHT22;6816;48.506;9.050;2023-03-31T11:37:16;15.40;89.20
13488;DHT22;6816;48.506;9.050;2023-03-31T11:40:39;14.60;90.90
13488;DHT22;6816;48.506;9.050;2023-03-31T11:43:54;13.90;91.70
13488;DHT22;6816;48.506;9.050;2023-03-31T11:47:06;13.30;93.00
13488;DHT22;6816;48.506;9.050;2023-03-31T11:50:19;12.80;93.70
13488;DHT22;6816;48.506;9.050;2023-03-31T11:53:28;12.50;95.20
13488;DHT22;6816;48.506;9.050;2023-03-31T11:56:35;12.20;98.10
13488;DHT22;6816;48.506;9.050;2023-03-31T11:59:38;12.00;99.90
13488;DHT22;6816;48.506;9.050;2023-03-31T12:03:10;12.10;99.90
13488;DHT22;6816;48.506;9.050;2023-03-31T12:06:17;12.10;99.90
13488;DHT22;6816;48.506;9.050;2023-03-31T12:09:29;12.20;99.90
13488;DHT22;6816;48.506;9.050;2023-03-31T12:12:55;12.30;99.90
13488;DHT22;6816;48.506;9.050;2023-03-31T12:16:14;12.50;99.90
13488;DHT22;6816;48.506;9.050;2023-03-31T12:19:24;12.60;99.90
13488;DHT22;6816;48.506;9.050;2023-03-31T12:22:47;12.70;99.90
13488;DHT22;6816;48.506;9.050;2023-03-31T12:29:05;13.20;99.90
13488;DHT22;6816;48.506;9.050;2023-03-31T12:32:18;13.40;99.90
13488;DHT22;6816;48.506;9.050;2023-03-31T12:45:12;14.30;99.90
13488;DHT22;6816;48.506;9.050;2023-03-31T12:51:42;14.90;99.90
13488;DHT22;6816;48.506;9.050;2023-03-31T12:54:55;15.10;99.90
13488;DHT22;6816;48.506;9.050;2023-03-31T13:01:22;15.60;99.90
13488;DHT22;6816;48.506;9.050;2023-03-31T13:04:26;15.90;99.90
13488;DHT22;6816;48.506;9.050;2023-03-31T13:10:29;16.20;99.90
13488;DHT22;6816;48.506;9.050;2023-03-31T13:13:30;16.30;99.90
13488;DHT22;6816;48.506;9.050;2023-03-31T13:16:33;16.40;99.90
13488;DHT22;6816;48.506;9.050;2023-03-31T13:19:35;16.40;99.90
13488;DHT22;6816;48.506;9.050;2023-03-31T13:22:36;16.40;99.90
13488;DHT22;6816;48.506;9.050;2023-03-31T13:25:48;16.50;99.90
13488;DHT22;6816;48.506;9.050;2023-03-31T13:32:20;16.50;99.90
13488;DHT22;6816;48.506;9.050;2023-03-31T13:35:25;16.50;99.90
13488;DHT22;6816;48.506;9.050;2023-03-31T13:42:47;16.50;99.90
13488;DHT22;6816;48.506;9.050;2023-03-31T13:52:08;15.90;99.90
13488;DHT22;6816;48.506;9.050;2023-03-31T13:58:48;15.10;97.80
13488;DHT22;6816;48.506;9.050;2023-03-31T14:02:04;14.70;99.40
13488;DHT22;6816;48.506;9.050;2023-03-31T14:08:51;14.00;99.90
13488;DHT22;6816;48.506;9.050;2023-03-31T14:11:53;14.00;99.90
13488;DHT22;6816;48.506;9.050;2023-03-31T14:14:54;14.10;99.90
13488;DHT22;6816;48.506;9.050;2023-03-31T14:17:54;14.20;99.90
13488;DHT22;6816;48.506;9.050;2023-03-31T14:21:01;14.20;99.90
13488;DHT22;6816;48.506;9.050;2023-03-31T14:24:07;14.20;99.90
13488;DHT22;6816;48.506;9.050;2023-03-31T14:34:30;14.00;99.90
13488;DHT22;6816;48.506;9.050;2023-03-31T14:37:14;14.00;99.90
13488;DHT22;6816;48.506;9.050;2023-03-31T14:40:17;14.00;99.90
13488;DHT22;6816;48.506;9.050;2023-03-31T14:43:32;14.00;99.90
13488;DHT22;6816;48.506;9.050;2023-03-31T14:46:37;14.00;99.90
13488;DHT22;6816;48.506;9.050;2023-03-31T14:49:38;13.90;99.90
13488;DHT22;6816;48.506;9.050;2023-03-31T14:52:38;13.90;99.90
13488;DHT22;6816;48.506;9.050;2023-03-31T14:55:39;13.80;99.90
13488;DHT22;6816;48.506;9.050;2023-03-31T14:58:44;13.80;99.90
13488;DHT22;6816;48.506;9.050;2023-03-31T15:01:48;13.70;99.90
13488;DHT22;6816;48.506;9.050;2023-03-31T15:04:49;13.70;99.90
13488;DHT22;6816;48.506;9.050;2023-03-31T15:07:50;13.60;99.90
13488;DHT22;6816;48.506;9.050;2023-03-31T15:10:55;13.60;99.90
13488;DHT22;6816;48.506;9.050;2023-03-31T15:13:57;13.70;99.90
13488;DHT22;6816;48.506;9.050;2023-03-31T15:16:58;13.60;99.90
13488;DHT22;6816;48.506;9.050;2023-03-31T15:20:01;13.60;99.90
13488;DHT22;6816;48.506;9.050;2023-03-31T15:23:26;13.50;99.90
13488;DHT22;6816;48.506;9.050;2023-03-31T15:26:32;13.40;99.90
13488;DHT22;6816;48.506;9.050;2023-03-31T15:29:40;13.50;99.90
13488;DHT22;6816;48.506;9.050;2023-03-31T15:32:42;13.60;99.90
13488;DHT22;6816;48.506;9.050;2023-03-31T15:35:42;13.50;99.90
13488;DHT22;6816;48.506;9.050;2023-03-31T15:38:43;13.50;99.90
13488;DHT22;6816;48.506;9.050;2023-03-31T15:41:46;13.50;99.90
13488;DHT22;6816;48.506;9.050;2023-03-31T15:44:54;13.40;99.90
13488;DHT22;6816;48.506;9.050;2023-03-31T15:47:55;13.40;99.90
13488;DHT22;6816;48.506;9.050;2023-03-31T15:51:33;13.50;99.90
13488;DHT22;6816;48.506;9.050;2023-03-31T15:54:41;13.40;99.90
13488;DHT22;6816;48.506;9.050;2023-03-31T15:57:43;13.40;99.90
13488;DHT22;6816;48.506;9.050;2023-03-31T16:00:53;13.40;99.90
13488;DHT22;6816;48.506;9.050;2023-03-31T16:04:09;13.40;99.90
13488;DHT22;6816;48.506;9.050;2023-03-31T16:07:35;13.40;99.90
13488;DHT22;6816;48.506;9.050;2023-03-31T16:10:36;13.50;99.90
13488;DHT22;6816;48.506;9.050;2023-03-31T16:13:39;13.50;99.90
13488;DHT22;6816;48.506;9.050;2023-03-31T16:16:45;13.50;99.90
13488;DHT22;6816;48.506;9.050;2023-03-31T16:20:00;13.50;99.90
13488;DHT22;6816;48.506;9.050;2023-03-31T16:23:13;13.50;99.90
13488;DHT22;6816;48.506;9.050;2023-03-31T16:26:21;13.40;99.90
13488;DHT22;6816;48.506;9.050;2023-03-31T16:29:22;13.40;99.90
13488;DHT22;6816;48.506;9.050;2023-03-31T16:32:22;13.40;99.90
13488;DHT22;6816;48.506;9.050;2023-03-31T16:35:24;13.30;99.90
13488;DHT22;6816;48.506;9.050;2023-03-31T16:38:28;13.30;99.90
13488;DHT22;6816;48.506;9.050;2023-03-31T16:41:31;13.20;99.90
13488;DHT22;6816;48.506;9.050;2023-03-31T16:44:32;13.00;99.90
13488;DHT22;6816;48.506;9.050;2023-03-31T16:47:32;12.80;99.90
13488;DHT22;6816;48.506;9.050;2023-03-31T16:50:33;12.70;99.90
13488;DHT22;6816;48.506;9.050;2023-03-31T16:53:35;12.40;99.90
13488;DHT22;6816;48.506;9.050;2023-03-31T16:56:36;12.20;99.90
13488;DHT22;6816;48.506;9.050;2023-03-31T16:59:36;12.20;99.90
13488;DHT22;6816;48.506;9.050;2023-03-31T17:02:37;12.00;99.90
13488;DHT22;6816;48.506;9.050;2023-03-31T17:05:45;12.00;99.90
13488;DHT22;6816;48.506;9.050;2023-03-31T17:08:46;11.80;99.90
13488;DHT22;6816;48.506;9.050;2023-03-31T17:11:47;11.70;99.90
13488;DHT22;6816;48.506;9.050;2023-03-31T17:14:49;11.60;99.90
13488;DHT22;6816;48.506;9.050;2023-03-31T17:17:50;11.50;99.90
13488;DHT22;6816;48.506;9.050;2023-03-31T17:20:51;11.40;99.90
13488;DHT22;6816;48.506;9.050;2023-03-31T17:23:53;11.40;99.90
13488;DHT22;6816;48.506;9.050;2023-03-31T17:26:54;11.50;99.90
13488;DHT22;6816;48.506;9.050;2023-03-31T17:29:55;11.30;99.90
13488;DHT22;6816;48.506;9.050;2023-03-31T17:32:55;11.30;99.90
13488;DHT22;6816;48.506;9.050;2023-03-31T17:35:57;11.30;99.90
13488;DHT22;6816;48.506;9.050;2023-03-31T17:38:58;11.30;99.90
13488;DHT22;6816;48.506;9.050;2023-03-31T17:41:59;11.30;99.90
13488;DHT22;6816;48.506;9.050;2023-03-31T17:45:00;11.30;99.90
13488;DHT22;6816;48.506;9.050;2023-03-31T17:48:00;11.30;99.90
13488;DHT22;6816;48.506;9.050;2023-03-31T17:51:06;11.30;99.90
13488;DHT22;6816;48.506;9.050;2023-03-31T17:54:07;11.30;99.90
13488;DHT22;6816;48.506;9.050;2023-03-31T17:57:07;11.30;99.90
13488;DHT22;6816;48.506;9.050;2023-03-31T18:00:09;11.20;99.90
13488;DHT22;6816;48.506;9.050;2023-03-31T18:03:10;11.20;99.90
13488;DHT22;6816;48.506;9.050;2023-03-31T18:06:13;11.20;99.90
13488;DHT22;6816;48.506;9.050;2023-03-31T18:09:14;11.20;99.90
13488;DHT22;6816;48.506;9.050;2023-03-31T18:12:16;11.10;99.90
13488;DHT22;6816;48.506;9.050;2023-03-31T18:15:17;11.10;99.90
13488;DHT22;6816;48.506;9.050;2023-03-31T18:18:18;11.10;99.90
13488;DHT22;6816;48.506;9.050;2023-03-31T18:21:20;11.00;99.90
13488;DHT22;6816;48.506;9.050;2023-03-31T18:24:21;11.10;99.90
13488;DHT22;6816;48.506;9.050;2023-03-31T18:27:21;11.10;99.90
13488;DHT22;6816;48.506;9.050;2023-03-31T18:30:22;11.10;99.90
13488;DHT22;6816;48.506;9.050;2023-03-31T18:33:23;11.10;99.90
13488;DHT22;6816;48.506;9.050;2023-03-31T18:36:23;11.10;99.90
13488;DHT22;6816;48.506;9.050;2023-03-31T18:39:24;11.10;99.90
13488;DHT22;6816;48.506;9.050;2023-03-31T18:42:25;11.10;99.90
13488;DHT22;6816;48.506;9.050;2023-03-31T18:45:26;11.10;99.90
13488;DHT22;6816;48.506;9.050;2023-03-31T18:48:27;11.10;99.90
13488;DHT22;6816;48.506;9.050;2023-03-31T18:51:34;11.00;99.90
13488;DHT22;6816;48.506;9.050;2023-03-31T18:54:35;11.00;99.90
13488;DHT22;6816;48.506;9.050;2023-03-31T18:57:36;11.00;99.90
13488;DHT22;6816;48.506;9.050;2023-03-31T19:00:37;10.90;99.90
13488;DHT22;6816;48.506;9.050;2023-03-31T19:03:37;10.90;99.90
13488;DHT22;6816;48.506;9.050;2023-03-31T19:06:38;10.80;99.90
13488;DHT22;6816;48.506;9.050;2023-03-31T19:09:39;11.20;99.90
13488;DHT22;6816;48.506;9.050;2023-03-31T19:12:39;10.80;99.90
13488;DHT22;6816;48.506;9.050;2023-03-31T19:15:44;10.70;99.90
13488;DHT22;6816;48.506;9.050;2023-03-31T19:18:46;10.60;99.90
13488;DHT22;6816;48.506;9.050;2023-03-31T19:21:47;10.60;99.90
13488;DHT22;6816;48.506;9.050;2023-03-31T19:24:50;10.60;99.90
13488;DHT22;6816;48.506;9.050;2023-03-31T19:27:51;10.50;99.90
13488;DHT22;6816;48.506;9.050;2023-03-31T19:30:53;10.60;99.90
13488;DHT22;6816;48.506;9.050;2023-03-31T19:33:55;10.50;99.90
13488;DHT22;6816;48.506;9.050;2023-03-31T19:36:57;10.50;99.90
13488;DHT22;6816;48.506;9.050;2023-03-31T19:39:58;10.50;99.90
13488;DHT22;6816;48.506;9.050;2023-03-31T19:42:59;10.40;99.90
13488;DHT22;6816;48.506;9.050;2023-03-31T19:46:00;10.30;99.90
13488;DHT22;6816;48.506;9.050;2023-03-31T19:49:01;10.30;99.90
13488;DHT22;6816;48.506;9.050;2023-03-31T19:52:04;10.30;99.90
13488;DHT22;6816;48.506;9.050;2023-03-31T19:55:05;10.30;99.90
13488;DHT22;6816;48.506;9.050;2023-03-31T19:58:06;10.30;99.90
13488;DHT22;6816;48.506;9.050;2023-03-31T20:01:13;10.30;99.90
13488;DHT22;6816;48.506;9.050;2023-03-31T20:04:14;10.30;99.90
13488;DHT22;6816;48.506;9.050;2023-03-31T20:07:17;10.30;99.90
13488;DHT22;6816;48.506;9.050;2023-03-31T20:10:18;10.30;99.90
13488;DHT22;6816;48.506;9.050;2023-03-31T20:13:18;10.30;99.90
13488;DHT22;6816;48.506;9.050;2023-03-31T20:16:21;10.20;99.90
13488;DHT22;6816;48.506;9.050;2023-03-31T20:19:22;10.30;99.90
13488;DHT22;6816;48.506;9.050;2023-03-31T20:22:24;10.30;99.90
13488;DHT22;6816;48.506;9.050;2023-03-31T20:25:25;10.30;99.90
13488;DHT22;6816;48.506;9.050;2023-03-31T20:28:27;10.30;99.90
13488;DHT22;6816;48.506;9.050;2023-03-31T20:31:33;10.40;99.90
13488;DHT22;6816;48.506;9.050;2023-03-31T20:34:36;10.40;99.90
13488;DHT22;6816;48.506;9.050;2023-03-31T20:37:37;10.40;99.90
13488;DHT22;6816;48.506;9.050;2023-03-31T20:40:38;10.50;99.90
13488;DHT22;6816;48.506;9.050;2023-03-31T20:43:40;10.50;99.90
13488;DHT22;6816;48.506;9.050;2023-03-31T20:46:41;10.50;99.90
13488;DHT22;6816;48.506;9.050;2023-03-31T20:49:42;10.50;99.90
13488;DHT22;6816;48.506;9.050;2023-03-31T20:52:43;10.50;99.90
13488;DHT22;6816;48.506;9.050;2023-03-31T20:55:46;10.60;99.90
13488;DHT22;6816;48.506;9.050;2023-03-31T20:58:49;10.60;99.90
13488;DHT22;6816;48.506;9.050;2023-03-31T21:01:50;10.60;99.90
13488;DHT22;6816;48.506;9.050;2023-03-31T21:04:50;10.50;99.90
13488;DHT22;6816;48.506;9.050;2023-03-31T21:07:52;10.60;99.90
13488;DHT22;6816;48.506;9.050;2023-03-31T21:10:53;10.60;99.90
13488;DHT22;6816;48.506;9.050;2023-03-31T21:13:57;10.70;99.90
13488;DHT22;6816;48.506;9.050;2023-03-31T21:16:58;10.60;99.90
13488;DHT22;6816;48.506;9.050;2023-03-31T21:19:59;10.60;99.90
13488;DHT22;6816;48.506;9.050;2023-03-31T21:22:59;10.60;99.90
13488;DHT22;6816;48.506;9.050;2023-03-31T21:26:02;10.60;99.90
13488;DHT22;6816;48.506;9.050;2023-03-31T21:29:03;10.70;99.90
13488;DHT22;6816;48.506;9.050;2023-03-31T21:32:04;10.70;99.90
13488;DHT22;6816;48.506;9.050;2023-03-31T21:35:06;10.70;99.90
13488;DHT22;6816;48.506;9.050;2023-03-31T21:38:07;10.70;99.90
13488;DHT22;6816;48.506;9.050;2023-03-31T21:41:11;10.70;99.90
13488;DHT22;6816;48.506;9.050;2023-03-31T21:44:12;10.70;99.90
13488;DHT22;6816;48.506;9.050;2023-03-31T21:47:14;10.70;99.90
13488;DHT22;6816;48.506;9.050;2023-03-31T21:50:15;10.60;99.90
13488;DHT22;6816;48.506;9.050;2023-03-31T21:53:15;10.60;99.90
13488;DHT22;6816;48.506;9.050;2023-03-31T21:56:16;10.60;99.90
13488;DHT22;6816;48.506;9.050;2023-03-31T21:59:17;10.60;99.90
13488;DHT22;6816;48.506;9.050;2023-03-31T22:02:18;10.50;99.90
13488;DHT22;6816;48.506;9.050;2023-03-31T22:05:18;10.50;99.90